| time (UTC) | temp C | wind direction | speed KPH | gust KPH | rain 1hr cm | rain 24hr cm | rain mn cm | humidity % | barometer mb |
| 20260509173022 | 26 | 58 | 0.0 | 0.0 | 0.00 | 3.99 | 0.00 | 66 | 1011.6 |
| 20260509172525 | 26 | 92 | 6.4 | 0.0 | 0.00 | 3.99 | 0.00 | 67 | 1011.6 |
| 20260509172025 | 27 | 93 | 20.9 | 0.0 | 0.00 | 3.99 | 0.00 | 66 | 1011.6 |
| 20260509171733 | 27 | 78 | 20.9 | 0.0 | 0.00 | 3.99 | 0.00 | 65 | 1011.3 |
| 20260509171007 | 26 | 160 | 14.5 | 0.0 | 0.00 | 3.99 | 0.00 | 67 | 1011.6 |
| 20260509170510 | 26 | 47 | 14.5 | 0.0 | 0.00 | 3.99 | 0.00 | 67 | 1011.6 |
| 20260509170013 | 26 | 59 | 20.9 | 0.0 | 0.00 | 3.99 | 0.00 | 66 | 1011.6 |
| 20260509165516 | 26 | 6 | 14.5 | 0.0 | 0.00 | 3.99 | 0.00 | 69 | 1011.3 |
| 20260509165019 | 26 | 23 | 20.9 | 0.0 | 0.00 | 3.99 | 0.00 | 71 | 1011.3 |
| 20260509164522 | 26 | 122 | 20.9 | 0.0 | 0.00 | 3.99 | 0.00 | 69 | 1011.3 |
| 20260509164009 | 25 | 87 | 14.5 | 0.0 | 0.00 | 3.99 | 0.00 | 72 | 1011.6 |
| 20260509163525 | 25 | 76 | 37.0 | 0.0 | 0.00 | 3.99 | 0.00 | 70 | 1011.6 |
| 20260509163005 | 26 | 47 | 6.4 | 0.0 | 0.00 | 3.99 | 0.00 | 72 | 1011.3 |
| 20260509162505 | 25 | 98 | 14.5 | 0.0 | 0.00 | 3.99 | 0.00 | 75 | 1012.0 |
| 20260509162005 | 25 | 106 | 37.0 | 0.0 | 0.00 | 3.99 | 0.00 | 74 | 1011.6 |
| 20260509161505 | 24 | 61 | 0.0 | 0.0 | 0.00 | 3.99 | 0.00 | 80 | 1011.6 |
| 20260509161005 | 23 | 70 | 20.9 | 0.0 | 0.00 | 3.99 | 0.00 | 90 | 1012.0 |
| 20260509160712 | 22 | 46 | 20.9 | 0.0 | 0.00 | 3.99 | 0.00 | 95 | 1012.0 |
| 20260509160005 | 22 | 58 | 20.9 | 0.0 | 0.00 | 3.99 | 0.00 | 95 | 1012.0 |
| 20260509155505 | 21 | 123 | 14.5 | 0.0 | 0.00 | 3.99 | 0.00 | 95 | 1012.0 |
| 20260509155005 | 22 | 114 | 14.5 | 0.0 | 0.00 | 3.99 | 0.00 | 95 | 1012.0 |
| 20260509154505 | 21 | 35 | 14.5 | 0.0 | 0.00 | 3.99 | 0.00 | 95 | 1011.6 |
| 20260509154005 | 21 | 74 | 0.0 | 0.0 | 0.00 | 3.99 | 0.00 | 95 | 1012.0 |
| 20260509153505 | 21 | 97 | 6.4 | 0.0 | 0.00 | 3.99 | 0.00 | 95 | 1012.3 |
| 20260509153005 | 21 | 357 | 6.4 | 0.0 | 0.00 | 3.99 | 0.00 | 95 | 1012.3 |
| 20260509152711 | 21 | 54 | 14.5 | 0.0 | 0.00 | 3.99 | 0.00 | 95 | 1012.7 |
| 20260509152005 | 21 | 96 | 6.4 | 0.0 | 0.00 | 3.99 | 0.00 | 95 | 1012.7 |
| 20260509151505 | 21 | 55 | 14.5 | 0.0 | 0.00 | 3.99 | 0.00 | 95 | 1012.7 |
| 20260509151005 | 21 | 35 | 20.9 | 0.0 | 0.00 | 3.99 | 0.00 | 95 | 1012.7 |
| 20260509150505 | 21 | 115 | 20.9 | 0.0 | 0.00 | 3.99 | 0.00 | 95 | 1013.0 |
| 20260509150212 | 21 | 114 | 6.4 | 0.0 | 0.18 | 3.99 | 0.00 | 95 | 1012.7 |
| 20260509145505 | 21 | 25 | 6.4 | 0.0 | 0.48 | 3.99 | 0.00 | 95 | 1012.7 |
| 20260509145005 | 20 | 71 | 0.0 | 0.0 | 0.61 | 3.96 | 0.00 | 95 | 1013.3 |
| 20260509144505 | 20 | 114 | 6.4 | 0.0 | 1.37 | 3.91 | 0.00 | 95 | 1013.0 |
| 20260509144005 | 20 | 50 | 6.4 | 0.0 | 2.29 | 3.84 | 0.00 | 95 | 1013.3 |
| 20260509143505 | 20 | 65 | 0.0 | 0.0 | 4.85 | 3.66 | 0.00 | 95 | 1013.3 |
| 20260509143005 | 20 | 69 | 20.9 | 0.0 | 10.34 | 3.40 | 0.00 | 95 | 1014.0 |
| 20260509142505 | 20 | 321 | 6.4 | 0.0 | 10.03 | 2.59 | 0.00 | 93 | 1014.4 |
| 20260509142212 | 21 | 66 | 14.5 | 0.0 | 3.48 | 1.47 | 0.00 | 92 | 1015.4 |
| 20260509141505 | 21 | 253 | 51.5 | 0.0 | 0.00 | 0.89 | 0.00 | 92 | 1014.7 |
| 20260509141212 | 21 | 214 | 20.9 | 0.0 | 0.18 | 0.89 | 0.00 | 92 | 1014.0 |
| 20260509140505 | 21 | 214 | 20.9 | 0.0 | 0.18 | 0.89 | 0.00 | 92 | 1012.3 |
| 20260509140006 | 21 | 33 | 14.5 | 0.0 | 0.00 | 0.86 | 0.00 | 93 | 1011.6 |
| 20260509135505 | 21 | 80 | 14.5 | 0.0 | 0.00 | 0.86 | 0.00 | 93 | 1011.3 |
| 20260509135212 | 21 | 81 | 14.5 | 0.0 | 0.13 | 0.86 | 0.00 | 92 | 1011.3 |
| 20260509134505 | 21 | 8 | 14.5 | 0.0 | 0.13 | 0.86 | 0.00 | 92 | 1011.6 |
| 20260509134005 | 21 | 1 | 20.9 | 0.0 | 0.00 | 0.84 | 0.00 | 92 | 1012.0 |
| 20260509133505 | 21 | 13 | 20.9 | 0.0 | 0.00 | 0.84 | 0.00 | 92 | 1011.6 |
| 20260509133212 | 21 | 68 | 14.5 | 0.0 | 0.00 | 0.84 | 0.00 | 92 | 1012.0 |
| 20260509132505 | 21 | 15 | 14.5 | 0.0 | 0.00 | 0.84 | 0.00 | 92 | 1011.6 |
| 20260509132005 | 21 | 81 | 6.4 | 0.0 | 0.00 | 0.84 | 0.00 | 92 | 1011.6 |
| 20260509131505 | 21 | 78 | 6.4 | 0.0 | 0.00 | 0.84 | 0.00 | 92 | 1012.0 |
| 20260509131005 | 21 | 71 | 14.5 | 0.0 | 0.00 | 0.84 | 0.00 | 93 | 1012.0 |
| 20260509130505 | 21 | 152 | 6.4 | 0.0 | 0.00 | 0.84 | 0.00 | 93 | 1012.0 |
| 20260509130005 | 21 | 5 | 6.4 | 0.0 | 0.00 | 0.84 | 0.00 | 94 | 1012.0 |
| 20260509125505 | 21 | 297 | 20.9 | 0.0 | 0.00 | 0.84 | 0.00 | 94 | 1012.0 |
| 20260509125005 | 21 | 13 | 6.4 | 0.0 | 0.00 | 0.84 | 0.00 | 94 | 1012.0 |
| 20260509124505 | 21 | 72 | 0.0 | 0.0 | 0.00 | 0.84 | 0.00 | 94 | 1011.6 |
| 20260509124005 | 21 | 194 | 20.9 | 0.0 | 0.00 | 0.84 | 0.00 | 95 | 1011.6 |
| 20260509123504 | 21 | 34 | 29.0 | 0.0 | 0.00 | 0.84 | 0.00 | 95 | 1011.3 |
| 20260509123005 | 21 | 337 | 20.9 | 0.0 | 0.00 | 0.84 | 0.00 | 95 | 1011.6 |
| 20260509122505 | 21 | 102 | 20.9 | 0.0 | 0.00 | 0.84 | 0.00 | 95 | 1011.6 |
| 20260509122005 | 21 | 42 | 20.9 | 0.0 | 0.00 | 0.84 | 0.00 | 95 | 1011.6 |
| 20260509121505 | 21 | 319 | 43.5 | 0.0 | 0.00 | 0.84 | 0.00 | 95 | 1011.3 |
| 20260509121005 | 21 | 40 | 37.0 | 0.0 | 0.00 | 0.84 | 0.00 | 95 | 1011.3 |
| 20260509120505 | 22 | 19 | 14.5 | 0.0 | 0.00 | 0.84 | 0.00 | 95 | 1011.6 |
| 20260509120213 | 21 | 8 | 14.5 | 0.0 | 0.00 | 0.84 | 0.00 | 95 | 1011.3 |
| 20260509115712 | 21 | 50 | 6.4 | 0.0 | 0.00 | 0.84 | 0.00 | 95 | 1011.3 |
| 20260509115005 | 22 | 150 | 14.5 | 0.0 | 0.18 | 0.84 | 0.00 | 94 | 1011.0 |
| 20260509114505 | 22 | 14 | 14.5 | 0.0 | 0.71 | 0.81 | 0.00 | 94 | 1010.6 |
| 20260509114005 | 22 | 338 | 6.4 | 0.0 | 2.29 | 0.81 | 0.00 | 94 | 1011.0 |
| 20260509113505 | 22 | 101 | 0.0 | 0.0 | 3.07 | 0.69 | 0.00 | 94 | 1011.0 |
| 20260509113005 | 23 | 209 | 29.0 | 0.0 | 1.68 | 0.38 | 0.00 | 93 | 1011.3 |
| 20260509112504 | 23 | 131 | 0.0 | 0.0 | 0.48 | 0.15 | 0.00 | 93 | 1011.3 |
| 20260509112005 | 23 | 190 | 14.5 | 0.0 | 0.43 | 0.10 | 0.00 | 92 | 1011.0 |
| 20260509111505 | 23 | 230 | 0.0 | 0.0 | 0.30 | 0.05 | 0.00 | 92 | 1011.3 |
| 20260509111005 | 23 | 64 | 0.0 | 0.0 | 0.18 | 0.03 | 0.00 | 92 | 1011.0 |
| 20260509110505 | 23 | 3 | 6.4 | 0.0 | 0.00 | 0.00 | 0.00 | 92 | 1010.6 |
| 20260509110213 | 23 | 325 | 20.9 | 0.0 | 0.00 | 0.00 | 0.00 | 92 | 1010.6 |
| 20260509105505 | 23 | 45 | 20.9 | 0.0 | 0.00 | 0.00 | 0.00 | 93 | 1010.6 |
| 20260509105005 | 23 | 334 | 6.4 | 0.0 | 0.00 | 0.00 | 0.00 | 93 | 1010.6 |
| 20260509104505 | 23 | 32 | 6.4 | 0.0 | 0.00 | 0.00 | 0.00 | 93 | 1010.6 |
| 20260509104005 | 23 | 17 | 14.5 | 0.0 | 0.00 | 0.00 | 0.00 | 93 | 1010.3 |
| 20260509103505 | 23 | 60 | 6.4 | 0.0 | 0.00 | 0.00 | 0.00 | 94 | 1009.9 |
| 20260509103005 | 23 | 61 | 6.4 | 0.0 | 0.00 | 0.00 | 0.00 | 94 | 1009.6 |
| 20260509102504 | 23 | 205 | 14.5 | 0.0 | 0.00 | 0.00 | 0.00 | 94 | 1009.6 |
| 20260509102005 | 23 | 108 | 0.0 | 0.0 | 0.00 | 0.00 | 0.00 | 94 | 1009.6 |
| 20260509101505 | 23 | 22 | 0.0 | 0.0 | 0.00 | 0.00 | 0.00 | 94 | 1009.3 |
| 20260509101005 | 23 | 76 | 0.0 | 0.0 | 0.00 | 0.00 | 0.00 | 95 | 1008.9 |
| 20260509100505 | 23 | 129 | 0.0 | 0.0 | 0.00 | 0.00 | 0.00 | 95 | 1009.3 |
| 20260509100006 | 22 | 260 | 6.4 | 0.0 | 0.00 | 0.00 | 0.00 | 95 | 1008.9 |
| 20260509095711 | 22 | 103 | 6.4 | 0.0 | 0.00 | 0.00 | 0.00 | 95 | 1008.6 |
| 20260509095005 | 22 | 28 | 0.0 | 0.0 | 0.00 | 0.00 | 0.00 | 95 | 1008.6 |
| 20260509094505 | 22 | 339 | 6.4 | 0.0 | 0.00 | 0.00 | 0.00 | 94 | 1008.6 |
| 20260509094212 | 22 | 102 | 0.0 | 0.0 | 0.00 | 0.00 | 0.00 | 94 | 1008.6 |
| 20260509093505 | 22 | 101 | 0.0 | 0.0 | 0.00 | 0.00 | 0.00 | 94 | 1008.6 |
| 20260509093004 | 22 | 76 | 0.0 | 0.0 | 0.00 | 0.00 | 0.00 | 94 | 1008.6 |
| 20260509092505 | 22 | 83 | 0.0 | 0.0 | 0.00 | 0.00 | 0.00 | 94 | 1008.9 |
| 20260509092005 | 22 | 104 | 0.0 | 0.0 | 0.00 | 0.00 | 0.00 | 94 | 1008.9 |
| 20260509091505 | 22 | 17 | 0.0 | 0.0 | 0.00 | 0.00 | 0.00 | 94 | 1008.9 |
| 20260509091212 | 22 | 83 | 0.0 | 0.0 | 0.00 | 0.00 | 0.00 | 94 | 1008.6 |
| 20260509090505 | 22 | 111 | 0.0 | 0.0 | 0.00 | 0.00 | 0.00 | 94 | 1008.9 |
| 20260509090005 | 22 | 82 | 6.4 | 0.0 | 0.00 | 0.00 | 0.00 | 94 | 1008.6 |
| 20260509085711 | 22 | 71 | 14.5 | 0.0 | 0.00 | 0.00 | 0.00 | 94 | 1008.6 |
| 20260509085005 | 22 | 83 | 0.0 | 0.0 | 0.00 | 0.00 | 0.00 | 93 | 1008.9 |
| 20260509084505 | 22 | 100 | 0.0 | 0.0 | 0.00 | 0.00 | 0.00 | 93 | 1008.6 |
| 20260509084005 | 22 | 112 | 0.0 | 0.0 | 0.00 | 0.00 | 0.00 | 93 | 1008.9 |
| 20260509083713 | 23 | 100 | 0.0 | 0.0 | 0.00 | 0.00 | 0.00 | 93 | 1008.6 |
| 20260509083005 | 23 | 92 | 0.0 | 0.0 | 0.00 | 0.00 | 0.00 | 93 | 1008.2 |
| 20260509082505 | 23 | 136 | 0.0 | 0.0 | 0.00 | 0.00 | 0.00 | 93 | 1008.6 |
| 20260509082005 | 23 | 127 | 0.0 | 0.0 | 0.00 | 0.00 | 0.00 | 93 | 1008.2 |
| 20260509081505 | 23 | 125 | 0.0 | 0.0 | 0.00 | 0.00 | 0.00 | 93 | 1007.9 |
| 20260509081005 | 23 | 104 | 20.9 | 0.0 | 0.00 | 0.00 | 0.00 | 93 | 1007.9 |
| 20260509080505 | 23 | 82 | 6.4 | 0.0 | 0.00 | 0.00 | 0.00 | 93 | 1008.2 |
| 20260509080005 | 23 | 80 | 0.0 | 0.0 | 0.00 | 0.00 | 0.00 | 93 | 1008.6 |
| 20260509075505 | 23 | 101 | 0.0 | 0.0 | 0.00 | 0.00 | 0.00 | 92 | 1008.9 |
| 20260509075214 | 23 | 121 | 0.0 | 0.0 | 0.00 | 0.00 | 0.00 | 92 | 1009.3 |
| 20260509074505 | 23 | 115 | 0.0 | 0.0 | 0.00 | 0.00 | 0.00 | 92 | 1009.3 |
| 20260509074005 | 23 | 64 | 0.0 | 0.0 | 0.00 | 0.00 | 0.00 | 92 | 1009.3 |
| 20260509073505 | 23 | 109 | 0.0 | 0.0 | 0.00 | 0.00 | 0.00 | 92 | 1009.6 |
| 20260509073005 | 23 | 126 | 6.4 | 0.0 | 0.00 | 0.00 | 0.00 | 92 | 1009.6 |
| 20260509072505 | 23 | 127 | 0.0 | 0.0 | 0.00 | 0.00 | 0.00 | 92 | 1009.6 |
| 20260509072005 | 23 | 112 | 0.0 | 0.0 | 0.00 | 0.00 | 0.00 | 92 | 1009.3 |
| 20260509071505 | 23 | 107 | 0.0 | 0.0 | 0.00 | 0.00 | 0.00 | 92 | 1009.6 |
| 20260509071005 | 23 | 121 | 0.0 | 0.0 | 0.00 | 0.00 | 0.00 | 92 | 1009.6 |
| 20260509070505 | 23 | 101 | 0.0 | 0.0 | 0.00 | 0.00 | 0.00 | 92 | 1009.3 |
| 20260509070005 | 23 | 129 | 0.0 | 0.0 | 0.00 | 0.00 | 0.00 | 91 | 1009.6 |
| 20260509065505 | 23 | 42 | 6.4 | 0.0 | 0.00 | 0.00 | 0.00 | 91 | 1009.6 |
| 20260509065005 | 23 | 110 | 0.0 | 0.0 | 0.00 | 0.00 | 0.00 | 91 | 1009.9 |
| 20260509064712 | 23 | 142 | 0.0 | 0.0 | 0.00 | 0.00 | 0.00 | 91 | 1009.6 |
| 20260509064005 | 23 | 120 | 0.0 | 0.0 | 0.00 | 0.00 | 0.00 | 91 | 1009.9 |
| 20260509063505 | 23 | 99 | 0.0 | 0.0 | 0.00 | 0.00 | 0.00 | 91 | 1009.6 |
| 20260509063005 | 23 | 97 | 0.0 | 0.0 | 0.00 | 0.00 | 0.00 | 91 | 1009.3 |
| 20260509062505 | 23 | 64 | 6.4 | 0.0 | 0.00 | 0.00 | 0.00 | 91 | 1008.9 |
| 20260509062005 | 23 | 99 | 0.0 | 0.0 | 0.00 | 0.00 | 0.00 | 91 | 1009.3 |
| 20260509061505 | 23 | 97 | 0.0 | 0.0 | 0.00 | 0.00 | 0.00 | 91 | 1009.6 |
| 20260509061005 | 23 | 116 | 0.0 | 0.0 | 0.00 | 0.00 | 0.00 | 91 | 1009.6 |
| 20260509060505 | 23 | 83 | 0.0 | 0.0 | 0.00 | 0.00 | 0.00 | 90 | 1009.6 |
| 20260509060211 | 23 | 95 | 0.0 | 0.0 | 0.00 | 0.00 | 0.00 | 90 | 1009.9 |
| 20260509055505 | 23 | 62 | 6.4 | 0.0 | 0.00 | 0.38 | 0.00 | 90 | 1009.6 |
| 20260509055005 | 23 | 127 | 0.0 | 0.0 | 0.00 | 0.38 | 0.00 | 90 | 1009.6 |
| 20260509054712 | 23 | 87 | 0.0 | 0.0 | 0.00 | 0.38 | 0.00 | 90 | 1009.6 |
| 20260509054005 | 23 | 109 | 0.0 | 0.0 | 0.00 | 0.38 | 0.00 | 89 | 1009.6 |
| 20260509053712 | 23 | 76 | 6.4 | 0.0 | 0.00 | 0.38 | 0.00 | 89 | 1009.6 |
| 20260509053005 | 23 | 84 | 0.0 | 0.0 | 0.00 | 0.38 | 0.00 | 89 | 1009.9 |
| 20260509052505 | 23 | 79 | 14.5 | 0.0 | 0.00 | 0.38 | 0.00 | 89 | 1009.6 |
| 20260509052005 | 23 | 82 | 14.5 | 0.0 | 0.00 | 0.38 | 0.00 | 89 | 1009.6 |
| 20260509051505 | 23 | 89 | 6.4 | 0.0 | 0.00 | 0.38 | 0.00 | 89 | 1009.9 |
| 20260509051005 | 23 | 60 | 6.4 | 0.0 | 0.00 | 0.38 | 0.00 | 88 | 1010.6 |
| 20260509050505 | 23 | 182 | 20.9 | 0.0 | 0.00 | 0.38 | 0.00 | 88 | 1011.0 |
| 20260509045505 | 23 | 111 | 6.4 | 0.0 | 0.00 | 0.38 | 0.00 | 89 | 1010.3 |
| 20260509045004 | 23 | 157 | 6.4 | 0.0 | 0.00 | 0.38 | 0.00 | 89 | 1010.6 |
| 20260509044505 | 23 | 96 | 0.0 | 0.0 | 0.00 | 0.38 | 0.00 | 89 | 1010.6 |
| 20260509044005 | 23 | 172 | 6.4 | 0.0 | 0.00 | 0.38 | 0.00 | 88 | 1010.6 |
| 20260509043505 | 23 | 107 | 6.4 | 0.0 | 0.00 | 0.38 | 0.00 | 88 | 1010.6 |
| 20260509043005 | 23 | 165 | 6.4 | 0.0 | 0.00 | 0.38 | 0.00 | 88 | 1010.6 |
| 20260509042505 | 23 | 137 | 6.4 | 0.0 | 0.18 | 0.38 | 0.00 | 87 | 1010.6 |
| 20260509042212 | 23 | 96 | 0.0 | 0.0 | 0.18 | 0.38 | 0.00 | 86 | 1010.3 |
| 20260509041505 | 24 | 59 | 14.5 | 0.0 | 0.00 | 0.36 | 0.00 | 83 | 1009.9 |
| 20260509041005 | 24 | 79 | 6.4 | 0.0 | 0.00 | 0.36 | 0.00 | 81 | 1009.9 |
| 20260509040504 | 25 | 79 | 6.4 | 0.0 | 0.00 | 0.36 | 0.00 | 80 | 1009.9 |
| 20260509040005 | 25 | 88 | 6.4 | 0.0 | 0.00 | 0.36 | 0.00 | 80 | 1009.9 |
| 20260509035505 | 25 | 144 | 0.0 | 0.0 | 0.00 | 0.36 | 0.00 | 79 | 1009.9 |
| 20260509035005 | 25 | 111 | 6.4 | 0.0 | 0.00 | 0.36 | 0.00 | 79 | 1009.9 |
| 20260509034505 | 25 | 86 | 14.5 | 0.0 | 0.00 | 0.36 | 0.00 | 79 | 1009.9 |
| 20260509034005 | 25 | 115 | 6.4 | 0.0 | 0.00 | 0.36 | 0.00 | 79 | 1009.9 |
| 20260509033505 | 25 | 156 | 6.4 | 0.0 | 0.00 | 0.36 | 0.00 | 79 | 1009.6 |
| 20260509033004 | 25 | 80 | 0.0 | 0.0 | 0.00 | 0.36 | 0.00 | 79 | 1009.3 |
| 20260509032505 | 25 | 104 | 14.5 | 0.0 | 0.00 | 0.36 | 0.00 | 78 | 1008.9 |
| 20260509032005 | 25 | 75 | 0.0 | 0.0 | 0.00 | 0.36 | 0.00 | 78 | 1009.3 |
| 20260509031505 | 25 | 56 | 14.5 | 0.0 | 0.00 | 0.36 | 0.00 | 79 | 1009.3 |
| 20260509031005 | 25 | 90 | 6.4 | 0.0 | 0.00 | 0.36 | 0.00 | 80 | 1008.9 |
| 20260509030505 | 25 | 87 | 6.4 | 0.0 | 0.00 | 0.36 | 0.00 | 79 | 1009.3 |
| 20260509030005 | 25 | 109 | 29.0 | 0.0 | 0.00 | 0.36 | 0.00 | 79 | 1008.9 |
| 20260509025505 | 25 | 75 | 14.5 | 0.0 | 0.00 | 0.36 | 0.00 | 80 | 1009.3 |
| 20260509025005 | 25 | 57 | 20.9 | 0.0 | 0.00 | 0.36 | 0.00 | 79 | 1008.9 |
| 20260509024505 | 25 | 46 | 20.9 | 0.0 | 0.00 | 0.36 | 0.00 | 79 | 1008.9 |
| 20260509024005 | 25 | 67 | 14.5 | 0.0 | 0.00 | 0.36 | 0.00 | 79 | 1008.9 |
| 20260509023505 | 25 | 92 | 14.5 | 0.0 | 0.00 | 0.36 | 0.00 | 79 | 1008.9 |
| 20260509023005 | 25 | 62 | 0.0 | 0.0 | 0.00 | 0.36 | 0.00 | 79 | 1008.9 |
| 20260509022505 | 25 | 74 | 6.4 | 0.0 | 0.00 | 0.36 | 0.00 | 79 | 1008.9 |
| 20260509022005 | 25 | 96 | 14.5 | 0.0 | 0.00 | 0.36 | 0.00 | 79 | 1008.9 |
| 20260509021505 | 25 | 79 | 0.0 | 0.0 | 0.00 | 0.36 | 0.00 | 79 | 1008.6 |
| 20260509021005 | 26 | 84 | 0.0 | 0.0 | 0.00 | 0.36 | 0.00 | 79 | 1008.6 |
| 20260509020712 | 26 | 63 | 29.0 | 0.0 | 0.00 | 0.36 | 0.00 | 78 | 1008.6 |
| 20260509020005 | 26 | 59 | 14.5 | 0.0 | 0.00 | 0.36 | 0.00 | 79 | 1008.6 |
| 20260509015712 | 26 | 72 | 6.4 | 0.0 | 0.00 | 0.36 | 0.00 | 79 | 1008.6 |
| 20260509015005 | 26 | 93 | 6.4 | 0.0 | 0.00 | 0.36 | 0.00 | 79 | 1008.2 |
| 20260509014505 | 26 | 59 | 14.5 | 0.0 | 0.00 | 0.36 | 0.00 | 79 | 1008.2 |
| 20260509014005 | 26 | 67 | 14.5 | 0.0 | 0.00 | 0.36 | 0.00 | 79 | 1007.9 |
| 20260509013505 | 26 | 81 | 20.9 | 0.0 | 0.00 | 0.36 | 0.00 | 79 | 1007.9 |
| 20260509013005 | 26 | 92 | 20.9 | 0.0 | 0.00 | 0.36 | 0.00 | 78 | 1007.9 |
| 20260509012505 | 26 | 34 | 6.4 | 0.0 | 0.00 | 0.36 | 0.00 | 78 | 1007.9 |
| 20260509012005 | 26 | 63 | 29.0 | 0.0 | 0.00 | 0.36 | 0.00 | 78 | 1007.6 |
| 20260509011505 | 26 | 78 | 6.4 | 0.0 | 0.00 | 0.36 | 0.00 | 78 | 1007.2 |
| 20260509011005 | 26 | 53 | 6.4 | 0.0 | 0.00 | 0.36 | 0.00 | 77 | 1007.2 |
| 20260509010505 | 26 | 9 | 6.4 | 0.0 | 0.00 | 0.36 | 0.00 | 77 | 1007.2 |
| 20260509010213 | 26 | 104 | 37.0 | 0.0 | 0.00 | 0.36 | 0.00 | 77 | 1006.9 |
| 20260509005505 | 26 | 47 | 6.4 | 0.0 | 0.00 | 0.36 | 0.00 | 77 | 1006.9 |
| 20260509005005 | 26 | 60 | 14.5 | 0.0 | 0.00 | 0.36 | 0.00 | 76 | 1007.2 |
| 20260509004505 | 26 | 56 | 0.0 | 0.0 | 0.00 | 0.36 | 0.00 | 76 | 1007.2 |
| 20260509004004 | 27 | 80 | 0.0 | 0.0 | 0.00 | 0.36 | 0.00 | 76 | 1007.2 |
| 20260509003505 | 27 | 30 | 0.0 | 0.0 | 0.00 | 0.36 | 0.00 | 76 | 1007.2 |
| 20260509003005 | 27 | 172 | 20.9 | 0.0 | 0.00 | 0.36 | 0.00 | 75 | 1007.2 |
| 20260509002712 | 27 | 131 | 14.5 | 0.0 | 0.00 | 0.36 | 0.00 | 75 | 1006.9 |
| 20260509002005 | 27 | 33 | 14.5 | 0.0 | 0.00 | 0.36 | 0.00 | 74 | 1006.9 |
| 20260509001712 | 27 | 89 | 14.5 | 0.0 | 0.00 | 0.36 | 0.00 | 74 | 1007.2 |
| 20260509001005 | 27 | 343 | 14.5 | 0.0 | 0.00 | 0.36 | 0.00 | 75 | 1007.2 |
| 20260509000712 | 27 | 93 | 14.5 | 0.0 | 0.00 | 0.36 | 0.00 | 75 | 1006.9 |
| 20260509000005 | 27 | 75 | 6.4 | 0.0 | 0.00 | 0.36 | 0.00 | 74 | 1007.2 |
| 20260508235505 | 27 | 96 | 37.0 | 0.0 | 0.00 | 0.36 | 0.00 | 74 | 1007.2 |
| 20260508235005 | 27 | 43 | 6.4 | 0.0 | 0.00 | 0.36 | 0.00 | 73 | 1007.2 |
| 20260508234505 | 27 | 60 | 14.5 | 0.0 | 0.00 | 0.36 | 0.00 | 73 | 1007.2 |
| 20260508234004 | 27 | 65 | 6.4 | 0.0 | 0.00 | 0.36 | 0.00 | 71 | 1007.2 |
| 20260508233712 | 28 | 106 | 20.9 | 0.0 | 0.00 | 0.36 | 0.00 | 70 | 1007.6 |
| 20260508233005 | 28 | 17 | 6.4 | 0.0 | 0.00 | 0.36 | 0.00 | 69 | 1007.2 |
| 20260508232505 | 28 | 79 | 0.0 | 0.0 | 0.00 | 0.36 | 0.00 | 69 | 1007.2 |
| 20260508232212 | 28 | 64 | 6.4 | 0.0 | 0.00 | 0.36 | 0.00 | 69 | 1007.2 |
| 20260508231505 | 27 | 342 | 6.4 | 0.0 | 0.00 | 0.36 | 0.00 | 71 | 1007.2 |
| 20260508231005 | 27 | 73 | 0.0 | 0.0 | 0.00 | 0.36 | 0.00 | 71 | 1007.6 |
| 20260508230713 | 27 | 53 | 6.4 | 0.0 | 0.00 | 0.36 | 0.00 | 71 | 1007.2 |
| 20260508230005 | 27 | 50 | 0.0 | 0.0 | 0.00 | 0.36 | 0.00 | 72 | 1007.6 |
| 20260508225711 | 27 | 79 | 0.0 | 0.0 | 0.00 | 0.36 | 0.00 | 72 | 1007.2 |
| 20260508225005 | 27 | 16 | 6.4 | 0.0 | 0.00 | 0.36 | 0.00 | 72 | 1007.2 |
| 20260508224505 | 27 | 65 | 6.4 | 0.0 | 0.00 | 0.36 | 0.00 | 71 | 1006.9 |
| 20260508224005 | 28 | 327 | 14.5 | 0.0 | 0.00 | 0.36 | 0.00 | 69 | 1007.2 |
| 20260508223505 | 28 | 57 | 0.0 | 0.0 | 0.00 | 0.36 | 0.00 | 70 | 1007.2 |
| 20260508223005 | 28 | 309 | 14.5 | 0.0 | 0.00 | 0.36 | 0.00 | 70 | 1007.2 |
| 20260508222505 | 27 | 73 | 0.0 | 0.0 | 0.00 | 0.36 | 0.00 | 70 | 1007.6 |
| 20260508222005 | 27 | 69 | 0.0 | 0.0 | 0.00 | 0.36 | 0.00 | 71 | 1007.9 |
| 20260508221505 | 27 | 57 | 0.0 | 0.0 | 0.00 | 0.36 | 0.00 | 71 | 1007.6 |
| 20260508221005 | 27 | 29 | 6.4 | 0.0 | 0.00 | 0.36 | 0.00 | 71 | 1007.6 |
| 20260508220505 | 27 | 81 | 6.4 | 0.0 | 0.00 | 0.36 | 0.00 | 71 | 1007.6 |
| 20260508220212 | 27 | 77 | 0.0 | 0.0 | 0.00 | 0.36 | 0.00 | 71 | 1007.9 |
| 20260508215505 | 27 | 47 | 0.0 | 0.0 | 0.00 | 0.36 | 0.00 | 71 | 1007.9 |
| 20260508215005 | 27 | 59 | 0.0 | 0.0 | 0.00 | 0.36 | 0.00 | 71 | 1007.9 |
| 20260508214505 | 27 | 58 | 6.4 | 0.0 | 0.00 | 0.36 | 0.00 | 70 | 1008.2 |
| 20260508214005 | 28 | 60 | 6.4 | 0.0 | 0.00 | 0.36 | 0.00 | 69 | 1008.2 |
| 20260508213505 | 28 | 63 | 0.0 | 0.0 | 0.00 | 0.36 | 0.00 | 70 | 1008.2 |
| 20260508213005 | 28 | 41 | 6.4 | 0.0 | 0.00 | 0.36 | 0.00 | 70 | 1008.6 |
| 20260508212505 | 28 | 97 | 0.0 | 0.0 | 0.00 | 0.36 | 0.00 | 69 | 1008.6 |
| 20260508212005 | 28 | 91 | 6.4 | 0.0 | 0.00 | 0.36 | 0.00 | 67 | 1008.9 |
| 20260508211505 | 27 | 1 | 6.4 | 0.0 | 0.00 | 0.36 | 0.00 | 70 | 1008.6 |
| 20260508211005 | 27 | 70 | 6.4 | 0.0 | 0.00 | 0.36 | 0.00 | 70 | 1008.9 |
| 20260508210504 | 28 | 97 | 6.4 | 0.0 | 0.00 | 0.36 | 0.00 | 68 | 1008.9 |
| 20260508210214 | 28 | 16 | 0.0 | 0.0 | 0.00 | 0.36 | 0.00 | 67 | 1008.9 |
| 20260508205505 | 29 | 93 | 6.4 | 0.0 | 0.00 | 0.36 | 0.00 | 63 | 1008.6 |
| 20260508205005 | 28 | 70 | 20.9 | 0.0 | 0.00 | 0.36 | 0.00 | 65 | 1008.9 |
| 20260508204505 | 28 | 84 | 0.0 | 0.0 | 0.00 | 0.36 | 0.00 | 68 | 1008.9 |
| 20260508204005 | 28 | 164 | 14.5 | 0.0 | 0.00 | 0.36 | 0.00 | 67 | 1009.3 |
| 20260508203505 | 28 | 81 | 6.4 | 0.0 | 0.00 | 0.36 | 0.00 | 68 | 1009.3 |
| 20260508203005 | 28 | 88 | 0.0 | 0.0 | 0.00 | 0.36 | 0.00 | 69 | 1009.3 |
| 20260508202505 | 28 | 146 | 14.5 | 0.0 | 0.00 | 0.36 | 0.00 | 70 | 1009.3 |
| 20260508202005 | 28 | 72 | 6.4 | 0.0 | 0.00 | 0.36 | 0.00 | 69 | 1009.3 |
| 20260508201505 | 28 | 80 | 6.4 | 0.0 | 0.00 | 0.36 | 0.00 | 68 | 1009.6 |
| 20260508201005 | 28 | 42 | 6.4 | 0.0 | 0.00 | 0.36 | 0.00 | 70 | 1009.6 |
| 20260508200505 | 28 | 77 | 0.0 | 0.0 | 0.00 | 0.36 | 0.00 | 67 | 1009.6 |
| 20260508200211 | 28 | 58 | 0.0 | 0.0 | 0.00 | 0.36 | 0.00 | 71 | 1009.6 |
| 20260508195505 | 28 | 140 | 20.9 | 0.0 | 0.00 | 0.36 | 0.00 | 69 | 1009.6 |
| 20260508195005 | 27 | 72 | 14.5 | 0.0 | 0.00 | 0.36 | 0.00 | 68 | 1009.9 |
| 20260508194712 | 27 | 7 | 6.4 | 0.0 | 0.00 | 0.36 | 0.00 | 74 | 1009.9 |
| 20260508194005 | 28 | 15 | 6.4 | 0.0 | 0.00 | 0.36 | 0.00 | 71 | 1009.9 |
| 20260508193505 | 28 | 9 | 0.0 | 0.0 | 0.00 | 0.36 | 0.00 | 72 | 1010.3 |
| 20260508193005 | 27 | 68 | 14.5 | 0.0 | 0.00 | 0.36 | 0.00 | 71 | 1010.3 |
| 20260508192505 | 27 | 249 | 14.5 | 0.0 | 0.00 | 0.36 | 0.00 | 72 | 1010.3 |
| 20260508192004 | 27 | 65 | 6.4 | 0.0 | 0.00 | 0.36 | 0.00 | 72 | 1010.3 |
| 20260508191505 | 27 | 42 | 0.0 | 0.0 | 0.00 | 0.36 | 0.00 | 74 | 1010.6 |
| 20260508191005 | 27 | 326 | 6.4 | 0.0 | 0.00 | 0.36 | 0.00 | 73 | 1010.6 |
| 20260508190505 | 27 | 58 | 14.5 | 0.0 | 0.00 | 0.36 | 0.00 | 73 | 1010.6 |
| 20260508190213 | 26 | 318 | 6.4 | 0.0 | 0.00 | 0.36 | 0.00 | 75 | 1010.6 |
| 20260508185504 | 26 | 13 | 14.5 | 0.0 | 0.00 | 0.36 | 0.00 | 76 | 1011.0 |
| 20260508185005 | 26 | 242 | 20.9 | 0.0 | 0.00 | 0.36 | 0.00 | 77 | 1011.0 |
| 20260508184505 | 26 | 337 | 6.4 | 0.0 | 0.00 | 0.36 | 0.00 | 78 | 1011.3 |
| 20260508184005 | 26 | 14 | 6.4 | 0.0 | 0.00 | 0.36 | 0.00 | 79 | 1011.0 |
| 20260508183505 | 25 | 314 | 14.5 | 0.0 | 0.00 | 0.36 | 0.00 | 79 | 1011.3 |
| 20260508183005 | 25 | 322 | 20.9 | 0.0 | 0.00 | 0.36 | 0.00 | 81 | 1011.3 |
| 20260508182505 | 25 | 39 | 6.4 | 0.0 | 0.00 | 0.36 | 0.00 | 81 | 1011.3 |
| 20260508182005 | 25 | 225 | 6.4 | 0.0 | 0.00 | 0.36 | 0.00 | 82 | 1011.6 |
| 20260508181505 | 25 | 340 | 20.9 | 0.0 | 0.00 | 0.36 | 0.00 | 82 | 1011.6 |
| 20260508181212 | 25 | 22 | 14.5 | 0.0 | 0.00 | 0.36 | 0.00 | 83 | 1011.3 |
| 20260508180505 | 23 | 345 | 6.4 | 0.0 | 0.00 | 0.36 | 0.00 | 86 | 1011.6 |
| 20260508180005 | 23 | 345 | 6.4 | 0.0 | 0.00 | 0.36 | 0.00 | 85 | 1011.3 |